sensor_id;sensor_type;location;lat;lon;timestamp;temperature;humidity
46890;DHT22;32625;51.080;16.970;2022-12-08T00:01:19;2.30;99.90
46890;DHT22;32625;51.080;16.970;2022-12-08T00:03:47;2.30;99.90
46890;DHT22;32625;51.080;16.970;2022-12-08T00:06:28;2.40;99.90
46890;DHT22;32625;51.080;16.970;2022-12-08T00:11:57;2.40;99.90
46890;DHT22;32625;51.080;16.970;2022-12-08T00:14:50;2.40;99.90
46890;DHT22;32625;51.080;16.970;2022-12-08T00:17:20;2.50;99.90
46890;DHT22;32625;51.080;16.970;2022-12-08T00:19:47;2.50;99.90
46890;DHT22;32625;51.080;16.970;2022-12-08T00:22:16;2.40;99.90
46890;DHT22;32625;51.080;16.970;2022-12-08T00:24:44;2.40;99.90
46890;DHT22;32625;51.080;16.970;2022-12-08T00:27:14;2.40;99.90
46890;DHT22;32625;51.080;16.970;2022-12-08T00:29:44;2.40;99.90
46890;DHT22;32625;51.080;16.970;2022-12-08T00:32:12;2.50;99.90
46890;DHT22;32625;51.080;16.970;2022-12-08T00:34:39;2.50;99.90
46890;DHT22;32625;51.080;16.970;2022-12-08T00:37:06;2.40;99.90
46890;DHT22;32625;51.080;16.970;2022-12-08T00:39:33;2.40;99.90
46890;DHT22;32625;51.080;16.970;2022-12-08T00:42:00;2.50;99.90
46890;DHT22;32625;51.080;16.970;2022-12-08T00:44:41;2.50;99.90
46890;DHT22;32625;51.080;16.970;2022-12-08T00:47:09;2.50;99.90
46890;DHT22;32625;51.080;16.970;2022-12-08T00:49:36;2.60;99.90
46890;DHT22;32625;51.080;16.970;2022-12-08T00:52:05;2.50;99.90
46890;DHT22;32625;51.080;16.970;2022-12-08T00:54:32;2.60;99.90
46890;DHT22;32625;51.080;16.970;2022-12-08T00:56:59;2.60;99.90
46890;DHT22;32625;51.080;16.970;2022-12-08T00:59:26;2.50;99.90
46890;DHT22;32625;51.080;16.970;2022-12-08T01:01:53;2.50;99.90
46890;DHT22;32625;51.080;16.970;2022-12-08T01:04:21;2.50;99.90
46890;DHT22;32625;51.080;16.970;2022-12-08T01:06:48;2.50;99.90
46890;DHT22;32625;51.080;16.970;2022-12-08T01:09:16;2.50;99.90
46890;DHT22;32625;51.080;16.970;2022-12-08T01:11:44;2.50;99.90
46890;DHT22;32625;51.080;16.970;2022-12-08T01:14:12;2.50;99.90
46890;DHT22;32625;51.080;16.970;2022-12-08T01:16:40;2.60;99.90
46890;DHT22;32625;51.080;16.970;2022-12-08T01:19:12;2.60;99.90
46890;DHT22;32625;51.080;16.970;2022-12-08T01:21:41;2.60;99.90
46890;DHT22;32625;51.080;16.970;2022-12-08T01:24:13;2.50;99.90
46890;DHT22;32625;51.080;16.970;2022-12-08T01:26:40;2.50;99.90
46890;DHT22;32625;51.080;16.970;2022-12-08T01:29:09;2.50;99.90
46890;DHT22;32625;51.080;16.970;2022-12-08T01:31:37;2.40;99.90
46890;DHT22;32625;51.080;16.970;2022-12-08T01:34:05;2.40;99.90
46890;DHT22;32625;51.080;16.970;2022-12-08T01:36:33;2.40;99.90
46890;DHT22;32625;51.080;16.970;2022-12-08T01:39:07;2.30;99.90
46890;DHT22;32625;51.080;16.970;2022-12-08T01:41:38;2.30;99.90
46890;DHT22;32625;51.080;16.970;2022-12-08T01:46:41;2.30;99.90
46890;DHT22;32625;51.080;16.970;2022-12-08T01:49:18;2.30;99.90
46890;DHT22;32625;51.080;16.970;2022-12-08T04:36:14;1.90;99.90
46890;DHT22;32625;51.080;16.970;2022-12-08T04:38:41;2.00;99.90
46890;DHT22;32625;51.080;16.970;2022-12-08T04:41:09;2.00;99.90
46890;DHT22;32625;51.080;16.970;2022-12-08T04:43:36;2.00;99.90
46890;DHT22;32625;51.080;16.970;2022-12-08T04:46:07;2.00;99.90
46890;DHT22;32625;51.080;16.970;2022-12-08T04:48:38;2.00;99.90
46890;DHT22;32625;51.080;16.970;2022-12-08T04:51:06;2.00;99.90
46890;DHT22;32625;51.080;16.970;2022-12-08T04:53:33;2.00;99.90
46890;DHT22;32625;51.080;16.970;2022-12-08T04:56:00;2.00;99.90
46890;DHT22;32625;51.080;16.970;2022-12-08T04:58:27;1.90;99.90
46890;DHT22;32625;51.080;16.970;2022-12-08T05:00:54;1.90;99.90
46890;DHT22;32625;51.080;16.970;2022-12-08T05:03:21;1.90;99.90
46890;DHT22;32625;51.080;16.970;2022-12-08T05:05:54;1.80;99.90
46890;DHT22;32625;51.080;16.970;2022-12-08T05:08:22;1.80;99.90
46890;DHT22;32625;51.080;16.970;2022-12-08T05:10:49;1.80;99.90
46890;DHT22;32625;51.080;16.970;2022-12-08T05:13:16;1.80;99.90
46890;DHT22;32625;51.080;16.970;2022-12-08T05:15:43;1.80;99.90
46890;DHT22;32625;51.080;16.970;2022-12-08T05:18:10;1.80;99.90
46890;DHT22;32625;51.080;16.970;2022-12-08T05:20:38;1.80;99.90
46890;DHT22;32625;51.080;16.970;2022-12-08T05:23:05;1.70;99.90
46890;DHT22;32625;51.080;16.970;2022-12-08T05:25:32;1.70;99.90
46890;DHT22;32625;51.080;16.970;2022-12-08T05:27:59;1.70;99.90
46890;DHT22;32625;51.080;16.970;2022-12-08T05:30:46;1.70;99.90
46890;DHT22;32625;51.080;16.970;2022-12-08T05:33:13;1.60;99.90
46890;DHT22;32625;51.080;16.970;2022-12-08T05:35:41;1.60;99.90
46890;DHT22;32625;51.080;16.970;2022-12-08T05:38:10;1.60;99.90
46890;DHT22;32625;51.080;16.970;2022-12-08T05:40:38;1.60;99.90
46890;DHT22;32625;51.080;16.970;2022-12-08T05:43:06;1.60;99.90
46890;DHT22;32625;51.080;16.970;2022-12-08T05:45:33;1.60;99.90
46890;DHT22;32625;51.080;16.970;2022-12-08T05:48:00;1.60;99.90
46890;DHT22;32625;51.080;16.970;2022-12-08T05:50:27;1.50;99.90
46890;DHT22;32625;51.080;16.970;2022-12-08T05:52:56;1.50;99.90
46890;DHT22;32625;51.080;16.970;2022-12-08T05:55:23;1.60;99.90
46890;DHT22;32625;51.080;16.970;2022-12-08T05:57:50;1.60;99.90
46890;DHT22;32625;51.080;16.970;2022-12-08T06:00:18;1.50;99.90
46890;DHT22;32625;51.080;16.970;2022-12-08T06:02:45;1.60;99.90
46890;DHT22;32625;51.080;16.970;2022-12-08T06:05:12;1.60;99.90
46890;DHT22;32625;51.080;16.970;2022-12-08T06:07:40;1.70;99.90
46890;DHT22;32625;51.080;16.970;2022-12-08T06:10:07;1.70;99.90
46890;DHT22;32625;51.080;16.970;2022-12-08T06:12:34;1.70;99.90
46890;DHT22;32625;51.080;16.970;2022-12-08T06:15:02;1.70;99.90
46890;DHT22;32625;51.080;16.970;2022-12-08T06:17:30;1.70;99.90
46890;DHT22;32625;51.080;16.970;2022-12-08T06:19:57;1.70;99.90
46890;DHT22;32625;51.080;16.970;2022-12-08T06:22:24;1.70;99.90
46890;DHT22;32625;51.080;16.970;2022-12-08T06:24:51;1.70;99.90
46890;DHT22;32625;51.080;16.970;2022-12-08T06:27:18;1.80;99.90
46890;DHT22;32625;51.080;16.970;2022-12-08T06:29:46;1.80;99.90
46890;DHT22;32625;51.080;16.970;2022-12-08T06:32:13;1.70;99.90
46890;DHT22;32625;51.080;16.970;2022-12-08T06:34:40;1.70;99.90
46890;DHT22;32625;51.080;16.970;2022-12-08T06:37:07;1.80;99.90
46890;DHT22;32625;51.080;16.970;2022-12-08T06:39:34;1.80;99.90
46890;DHT22;32625;51.080;16.970;2022-12-08T06:42:01;1.80;99.90
46890;DHT22;32625;51.080;16.970;2022-12-08T06:44:47;1.80;99.90
46890;DHT22;32625;51.080;16.970;2022-12-08T06:47:15;1.80;99.90
46890;DHT22;32625;51.080;16.970;2022-12-08T06:49:42;1.80;99.90
46890;DHT22;32625;51.080;16.970;2022-12-08T06:52:09;1.70;99.90
46890;DHT22;32625;51.080;16.970;2022-12-08T06:54:36;1.70;99.90
46890;DHT22;32625;51.080;16.970;2022-12-08T06:57:03;1.80;99.90
46890;DHT22;32625;51.080;16.970;2022-12-08T06:59:30;1.80;99.90
46890;DHT22;32625;51.080;16.970;2022-12-08T07:01:57;1.70;99.90
46890;DHT22;32625;51.080;16.970;2022-12-08T07:04:25;1.70;99.90
46890;DHT22;32625;51.080;16.970;2022-12-08T07:06:52;1.80;99.90
46890;DHT22;32625;51.080;16.970;2022-12-08T07:09:19;1.80;99.90
46890;DHT22;32625;51.080;16.970;2022-12-08T07:11:46;1.80;99.90
46890;DHT22;32625;51.080;16.970;2022-12-08T07:14:13;1.70;99.90
46890;DHT22;32625;51.080;16.970;2022-12-08T07:16:40;1.80;99.90
46890;DHT22;32625;51.080;16.970;2022-12-08T07:19:08;1.80;99.90
46890;DHT22;32625;51.080;16.970;2022-12-08T07:21:35;1.80;99.90
46890;DHT22;32625;51.080;16.970;2022-12-08T07:24:02;1.80;99.90
46890;DHT22;32625;51.080;16.970;2022-12-08T07:26:30;1.90;99.90
46890;DHT22;32625;51.080;16.970;2022-12-08T07:28:59;1.90;99.90
46890;DHT22;32625;51.080;16.970;2022-12-08T07:31:26;2.00;99.90
46890;DHT22;32625;51.080;16.970;2022-12-08T07:33:55;2.00;99.90
46890;DHT22;32625;51.080;16.970;2022-12-08T07:36:25;2.00;99.90
46890;DHT22;32625;51.080;16.970;2022-12-08T07:38:53;2.00;99.90
46890;DHT22;32625;51.080;16.970;2022-12-08T07:41:22;2.00;99.90
46890;DHT22;32625;51.080;16.970;2022-12-08T07:43:50;2.10;99.90
46890;DHT22;32625;51.080;16.970;2022-12-08T07:46:20;2.10;99.90
46890;DHT22;32625;51.080;16.970;2022-12-08T07:48:48;2.10;99.90
46890;DHT22;32625;51.080;16.970;2022-12-08T07:51:15;2.20;99.90
46890;DHT22;32625;51.080;16.970;2022-12-08T07:53:44;2.20;99.90
46890;DHT22;32625;51.080;16.970;2022-12-08T07:56:19;2.20;99.90
46890;DHT22;32625;51.080;16.970;2022-12-08T07:58:47;2.20;99.90
46890;DHT22;32625;51.080;16.970;2022-12-08T08:01:28;2.30;99.90
46890;DHT22;32625;51.080;16.970;2022-12-08T08:04:02;2.30;99.90
46890;DHT22;32625;51.080;16.970;2022-12-08T08:06:33;2.40;99.90
46890;DHT22;32625;51.080;16.970;2022-12-08T08:09:00;2.50;99.90
46890;DHT22;32625;51.080;16.970;2022-12-08T08:11:27;2.50;99.90
46890;DHT22;32625;51.080;16.970;2022-12-08T08:13:56;2.60;99.90
46890;DHT22;32625;51.080;16.970;2022-12-08T08:16:24;2.60;99.90
46890;DHT22;32625;51.080;16.970;2022-12-08T08:18:51;2.70;99.90
46890;DHT22;32625;51.080;16.970;2022-12-08T08:21:19;2.70;99.90
46890;DHT22;32625;51.080;16.970;2022-12-08T08:24:07;2.80;99.90
46890;DHT22;32625;51.080;16.970;2022-12-08T08:26:35;2.90;99.90
46890;DHT22;32625;51.080;16.970;2022-12-08T08:29:02;3.00;99.90
46890;DHT22;32625;51.080;16.970;2022-12-08T08:31:30;3.00;99.90
46890;DHT22;32625;51.080;16.970;2022-12-08T08:33:57;3.10;99.90
46890;DHT22;32625;51.080;16.970;2022-12-08T08:36:26;3.10;99.90
46890;DHT22;32625;51.080;16.970;2022-12-08T08:38:53;3.10;99.90
46890;DHT22;32625;51.080;16.970;2022-12-08T08:41:20;3.20;99.90
46890;DHT22;32625;51.080;16.970;2022-12-08T08:43:47;3.20;99.90
46890;DHT22;32625;51.080;16.970;2022-12-08T08:46:15;3.20;99.90
46890;DHT22;32625;51.080;16.970;2022-12-08T08:48:42;3.20;99.90
46890;DHT22;32625;51.080;16.970;2022-12-08T08:51:11;3.30;99.90
46890;DHT22;32625;51.080;16.970;2022-12-08T08:53:39;3.40;99.90
46890;DHT22;32625;51.080;16.970;2022-12-08T08:56:12;3.40;99.90
46890;DHT22;32625;51.080;16.970;2022-12-08T08:58:41;3.50;99.90
46890;DHT22;32625;51.080;16.970;2022-12-08T09:01:26;3.60;99.90
46890;DHT22;32625;51.080;16.970;2022-12-08T09:03:57;3.60;99.90
46890;DHT22;32625;51.080;16.970;2022-12-08T09:06:26;3.70;99.90
46890;DHT22;32625;51.080;16.970;2022-12-08T09:08:56;3.80;99.90
46890;DHT22;32625;51.080;16.970;2022-12-08T09:11:23;3.80;99.90
46890;DHT22;32625;51.080;16.970;2022-12-08T09:13:51;3.80;99.90
46890;DHT22;32625;51.080;16.970;2022-12-08T09:16:19;3.80;99.90
46890;DHT22;32625;51.080;16.970;2022-12-08T09:18:47;3.80;99.90
46890;DHT22;32625;51.080;16.970;2022-12-08T09:21:21;3.80;99.90
46890;DHT22;32625;51.080;16.970;2022-12-08T09:23:53;3.80;99.90
46890;DHT22;32625;51.080;16.970;2022-12-08T09:26:21;3.80;99.90
46890;DHT22;32625;51.080;16.970;2022-12-08T09:28:50;3.90;99.90
46890;DHT22;32625;51.080;16.970;2022-12-08T09:31:19;3.90;99.90
46890;DHT22;32625;51.080;16.970;2022-12-08T09:33:46;4.00;99.90
46890;DHT22;32625;51.080;16.970;2022-12-08T09:36:14;4.00;99.90
46890;DHT22;32625;51.080;16.970;2022-12-08T09:38:41;4.10;99.90
46890;DHT22;32625;51.080;16.970;2022-12-08T09:41:44;4.10;99.90
46890;DHT22;32625;51.080;16.970;2022-12-08T09:46:59;4.20;99.90
46890;DHT22;32625;51.080;16.970;2022-12-08T09:49:44;4.20;99.90
46890;DHT22;32625;51.080;16.970;2022-12-08T09:52:42;4.30;99.90
46890;DHT22;32625;51.080;16.970;2022-12-08T09:55:21;4.30;99.90
46890;DHT22;32625;51.080;16.970;2022-12-08T09:58:00;4.30;99.90
46890;DHT22;32625;51.080;16.970;2022-12-08T10:00:29;4.30;99.90
46890;DHT22;32625;51.080;16.970;2022-12-08T10:02:56;4.40;99.90
46890;DHT22;32625;51.080;16.970;2022-12-08T10:05:25;4.40;99.90
46890;DHT22;32625;51.080;16.970;2022-12-08T10:08:14;4.40;99.90
46890;DHT22;32625;51.080;16.970;2022-12-08T10:10:55;4.40;99.90
46890;DHT22;32625;51.080;16.970;2022-12-08T10:13:35;4.50;99.90
46890;DHT22;32625;51.080;16.970;2022-12-08T10:16:39;4.60;99.90
46890;DHT22;32625;51.080;16.970;2022-12-08T10:19:20;4.50;99.90
46890;DHT22;32625;51.080;16.970;2022-12-08T10:21:49;4.60;99.90
46890;DHT22;32625;51.080;16.970;2022-12-08T10:24:32;4.60;99.90
46890;DHT22;32625;51.080;16.970;2022-12-08T10:27:03;4.50;99.90
46890;DHT22;32625;51.080;16.970;2022-12-08T10:29:32;4.60;99.90
46890;DHT22;32625;51.080;16.970;2022-12-08T10:31:59;4.60;99.90
46890;DHT22;32625;51.080;16.970;2022-12-08T10:34:27;4.60;99.90
46890;DHT22;32625;51.080;16.970;2022-12-08T10:36:56;4.60;99.90
46890;DHT22;32625;51.080;16.970;2022-12-08T10:42:19;4.60;99.90
46890;DHT22;32625;51.080;16.970;2022-12-08T10:47:26;4.60;99.90
46890;DHT22;32625;51.080;16.970;2022-12-08T10:52:54;4.70;99.90
46890;DHT22;32625;51.080;16.970;2022-12-08T10:55:21;4.80;99.90
46890;DHT22;32625;51.080;16.970;2022-12-08T10:57:49;4.70;99.90
46890;DHT22;32625;51.080;16.970;2022-12-08T11:00:22;4.70;99.90
46890;DHT22;32625;51.080;16.970;2022-12-08T11:05:22;4.80;99.90
46890;DHT22;32625;51.080;16.970;2022-12-08T11:07:52;4.80;99.90
46890;DHT22;32625;51.080;16.970;2022-12-08T11:10:33;4.80;99.90
46890;DHT22;32625;51.080;16.970;2022-12-08T11:13:04;4.80;99.90
46890;DHT22;32625;51.080;16.970;2022-12-08T11:15:37;4.80;99.90
46890;DHT22;32625;51.080;16.970;2022-12-08T11:18:28;4.80;99.90
46890;DHT22;32625;51.080;16.970;2022-12-08T11:21:15;4.90;99.90
46890;DHT22;32625;51.080;16.970;2022-12-08T11:23:47;5.00;99.90
46890;DHT22;32625;51.080;16.970;2022-12-08T11:26:32;5.00;99.90
46890;DHT22;32625;51.080;16.970;2022-12-08T11:29:01;5.00;99.90
46890;DHT22;32625;51.080;16.970;2022-12-08T11:31:34;4.90;99.90
46890;DHT22;32625;51.080;16.970;2022-12-08T11:34:05;5.00;99.90
46890;DHT22;32625;51.080;16.970;2022-12-08T11:36:37;4.90;99.90
46890;DHT22;32625;51.080;16.970;2022-12-08T11:39:05;4.90;99.90
46890;DHT22;32625;51.080;16.970;2022-12-08T11:41:40;4.90;99.90
46890;DHT22;32625;51.080;16.970;2022-12-08T11:47:03;4.80;99.90
46890;DHT22;32625;51.080;16.970;2022-12-08T11:49:39;4.70;99.90
46890;DHT22;32625;51.080;16.970;2022-12-08T11:52:19;4.70;99.90
46890;DHT22;32625;51.080;16.970;2022-12-08T11:57:37;4.60;99.90
46890;DHT22;32625;51.080;16.970;2022-12-08T12:00:05;4.60;99.90
46890;DHT22;32625;51.080;16.970;2022-12-08T12:02:40;4.60;99.90
46890;DHT22;32625;51.080;16.970;2022-12-08T12:05:30;4.60;99.90
46890;DHT22;32625;51.080;16.970;2022-12-08T12:11:14;4.60;99.90
46890;DHT22;32625;51.080;16.970;2022-12-08T12:17:05;4.60;99.90
46890;DHT22;32625;51.080;16.970;2022-12-08T12:19:37;4.60;99.90
46890;DHT22;32625;51.080;16.970;2022-12-08T12:22:16;4.60;99.90
46890;DHT22;32625;51.080;16.970;2022-12-08T12:24:48;4.60;99.90
46890;DHT22;32625;51.080;16.970;2022-12-08T12:27:31;4.60;99.90
46890;DHT22;32625;51.080;16.970;2022-12-08T12:30:06;4.60;99.90
46890;DHT22;32625;51.080;16.970;2022-12-08T12:32:47;4.60;99.90
46890;DHT22;32625;51.080;16.970;2022-12-08T12:35:32;4.60;99.90
46890;DHT22;32625;51.080;16.970;2022-12-08T12:38:04;4.70;99.90
46890;DHT22;32625;51.080;16.970;2022-12-08T12:41:01;4.70;99.90
46890;DHT22;32625;51.080;16.970;2022-12-08T12:43:32;4.70;99.90
46890;DHT22;32625;51.080;16.970;2022-12-08T12:48:51;4.80;99.90
46890;DHT22;32625;51.080;16.970;2022-12-08T12:51:44;4.80;99.90
46890;DHT22;32625;51.080;16.970;2022-12-08T12:56:50;4.80;99.90
46890;DHT22;32625;51.080;16.970;2022-12-08T12:59:44;4.80;99.90
46890;DHT22;32625;51.080;16.970;2022-12-08T13:05:30;4.70;99.90
46890;DHT22;32625;51.080;16.970;2022-12-08T13:07:59;4.60;99.90
46890;DHT22;32625;51.080;16.970;2022-12-08T13:10:28;4.50;99.90
46890;DHT22;32625;51.080;16.970;2022-12-08T13:13:06;4.40;99.90
46890;DHT22;32625;51.080;16.970;2022-12-08T13:15:56;4.30;99.90
46890;DHT22;32625;51.080;16.970;2022-12-08T13:18:55;4.30;99.90
46890;DHT22;32625;51.080;16.970;2022-12-08T13:21:25;4.20;99.90
46890;DHT22;32625;51.080;16.970;2022-12-08T13:29:30;4.30;99.90
46890;DHT22;32625;51.080;16.970;2022-12-08T13:31:59;4.30;99.90
46890;DHT22;32625;51.080;16.970;2022-12-08T13:34:39;4.30;99.90
46890;DHT22;32625;51.080;16.970;2022-12-08T13:40:09;4.30;99.90
46890;DHT22;32625;51.080;16.970;2022-12-08T13:45:48;4.30;99.90
46890;DHT22;32625;51.080;16.970;2022-12-08T13:48:43;4.30;99.90
46890;DHT22;32625;51.080;16.970;2022-12-08T13:51:40;4.20;99.90
46890;DHT22;32625;51.080;16.970;2022-12-08T13:54:38;4.20;99.90
46890;DHT22;32625;51.080;16.970;2022-12-08T13:57:35;4.10;99.90
46890;DHT22;32625;51.080;16.970;2022-12-08T14:00:13;4.00;99.90
46890;DHT22;32625;51.080;16.970;2022-12-08T14:02:46;4.00;99.90
46890;DHT22;32625;51.080;16.970;2022-12-08T14:05:20;3.90;99.90
46890;DHT22;32625;51.080;16.970;2022-12-08T14:08:32;3.90;99.90
46890;DHT22;32625;51.080;16.970;2022-12-08T14:14:13;3.80;99.90
46890;DHT22;32625;51.080;16.970;2022-12-08T14:17:04;3.80;99.90
46890;DHT22;32625;51.080;16.970;2022-12-08T14:19:33;3.80;99.90
46890;DHT22;32625;51.080;16.970;2022-12-08T14:22:12;3.80;99.90
46890;DHT22;32625;51.080;16.970;2022-12-08T14:24:46;3.80;99.90
46890;DHT22;32625;51.080;16.970;2022-12-08T14:27:25;3.70;99.90
46890;DHT22;32625;51.080;16.970;2022-12-08T14:30:20;3.60;99.90
46890;DHT22;32625;51.080;16.970;2022-12-08T14:32:48;3.50;99.90
46890;DHT22;32625;51.080;16.970;2022-12-08T14:35:32;3.50;99.90
46890;DHT22;32625;51.080;16.970;2022-12-08T14:38:20;3.40;99.90
46890;DHT22;32625;51.080;16.970;2022-12-08T14:41:03;3.30;99.90
46890;DHT22;32625;51.080;16.970;2022-12-08T14:43:31;3.30;99.90
46890;DHT22;32625;51.080;16.970;2022-12-08T14:46:04;3.20;99.90
46890;DHT22;32625;51.080;16.970;2022-12-08T14:53:41;3.10;99.90
46890;DHT22;32625;51.080;16.970;2022-12-08T14:56:23;3.10;99.90
46890;DHT22;32625;51.080;16.970;2022-12-08T15:01:33;3.00;99.90
46890;DHT22;32625;51.080;16.970;2022-12-08T15:04:22;2.90;99.90
46890;DHT22;32625;51.080;16.970;2022-12-08T15:06:51;2.80;99.90
46890;DHT22;32625;51.080;16.970;2022-12-08T15:09:38;2.80;99.90
46890;DHT22;32625;51.080;16.970;2022-12-08T15:12:20;2.70;99.90
46890;DHT22;32625;51.080;16.970;2022-12-08T15:15:14;2.60;99.90
46890;DHT22;32625;51.080;16.970;2022-12-08T15:17:56;2.50;99.90
46890;DHT22;32625;51.080;16.970;2022-12-08T15:22:57;2.50;99.90
46890;DHT22;32625;51.080;16.970;2022-12-08T15:25:24;2.40;99.90
46890;DHT22;32625;51.080;16.970;2022-12-08T15:27:51;2.40;99.90
46890;DHT22;32625;51.080;16.970;2022-12-08T15:30:19;2.30;99.90
46890;DHT22;32625;51.080;16.970;2022-12-08T15:32:46;2.20;99.90
46890;DHT22;32625;51.080;16.970;2022-12-08T15:35:14;2.10;99.90
46890;DHT22;32625;51.080;16.970;2022-12-08T15:37:41;2.20;99.90
46890;DHT22;32625;51.080;16.970;2022-12-08T15:40:20;2.10;99.90
46890;DHT22;32625;51.080;16.970;2022-12-08T15:42:48;2.10;99.90
46890;DHT22;32625;51.080;16.970;2022-12-08T15:45:16;2.10;99.90
46890;DHT22;32625;51.080;16.970;2022-12-08T15:47:44;2.10;99.90
46890;DHT22;32625;51.080;16.970;2022-12-08T15:50:16;2.10;99.90
46890;DHT22;32625;51.080;16.970;2022-12-08T15:52:44;1.70;99.90
46890;DHT22;32625;51.080;16.970;2022-12-08T15:55:12;2.20;99.90
46890;DHT22;32625;51.080;16.970;2022-12-08T15:57:42;2.30;99.90
46890;DHT22;32625;51.080;16.970;2022-12-08T16:00:34;2.40;99.90
46890;DHT22;32625;51.080;16.970;2022-12-08T16:03:23;2.50;99.90
46890;DHT22;32625;51.080;16.970;2022-12-08T16:06:18;2.50;99.90
46890;DHT22;32625;51.080;16.970;2022-12-08T16:09:22;2.60;99.90
46890;DHT22;32625;51.080;16.970;2022-12-08T16:11:54;2.70;99.90
46890;DHT22;32625;51.080;16.970;2022-12-08T16:14:46;2.70;99.90
46890;DHT22;32625;51.080;16.970;2022-12-08T16:17:34;2.80;99.90
46890;DHT22;32625;51.080;16.970;2022-12-08T16:20:04;2.90;99.90
46890;DHT22;32625;51.080;16.970;2022-12-08T16:22:32;2.90;99.90
46890;DHT22;32625;51.080;16.970;2022-12-08T16:25:20;2.90;99.90
46890;DHT22;32625;51.080;16.970;2022-12-08T16:27:51;2.90;99.90
46890;DHT22;32625;51.080;16.970;2022-12-08T16:30:39;2.90;99.90
46890;DHT22;32625;51.080;16.970;2022-12-08T16:33:06;2.90;99.90
46890;DHT22;32625;51.080;16.970;2022-12-08T16:35:33;2.90;99.90
46890;DHT22;32625;51.080;16.970;2022-12-08T16:38:00;2.90;99.90
46890;DHT22;32625;51.080;16.970;2022-12-08T16:40:28;2.90;99.90
46890;DHT22;32625;51.080;16.970;2022-12-08T16:42:55;3.00;99.90
46890;DHT22;32625;51.080;16.970;2022-12-08T16:45:25;3.00;99.90
46890;DHT22;32625;51.080;16.970;2022-12-08T16:47:55;3.00;99.90
46890;DHT22;32625;51.080;16.970;2022-12-08T16:50:28;3.00;99.90
46890;DHT22;32625;51.080;16.970;2022-12-08T16:53:04;2.90;99.90
46890;DHT22;32625;51.080;16.970;2022-12-08T16:55:32;2.90;99.90
46890;DHT22;32625;51.080;16.970;2022-12-08T16:58:00;2.80;99.90
46890;DHT22;32625;51.080;16.970;2022-12-08T17:00:28;2.70;99.90
46890;DHT22;32625;51.080;16.970;2022-12-08T17:02:56;2.60;99.90
46890;DHT22;32625;51.080;16.970;2022-12-08T17:05:25;2.50;99.90
46890;DHT22;32625;51.080;16.970;2022-12-08T17:07:53;2.40;99.90
46890;DHT22;32625;51.080;16.970;2022-12-08T17:10:22;2.30;99.90
46890;DHT22;32625;51.080;16.970;2022-12-08T17:12:51;2.20;99.90
46890;DHT22;32625;51.080;16.970;2022-12-08T17:15:22;2.20;99.90
46890;DHT22;32625;51.080;16.970;2022-12-08T17:17:49;2.00;99.90
46890;DHT22;32625;51.080;16.970;2022-12-08T17:20:25;1.90;99.90
46890;DHT22;32625;51.080;16.970;2022-12-08T17:22:54;1.90;99.90
46890;DHT22;32625;51.080;16.970;2022-12-08T17:25:21;1.80;99.90
46890;DHT22;32625;51.080;16.970;2022-12-08T17:27:49;1.70;99.90
46890;DHT22;32625;51.080;16.970;2022-12-08T17:30:17;1.70;99.90
46890;DHT22;32625;51.080;16.970;2022-12-08T17:32:44;1.60;99.90
46890;DHT22;32625;51.080;16.970;2022-12-08T17:35:12;1.50;99.90
46890;DHT22;32625;51.080;16.970;2022-12-08T17:37:41;1.50;99.90
46890;DHT22;32625;51.080;16.970;2022-12-08T17:40:09;1.50;99.90
46890;DHT22;32625;51.080;16.970;2022-12-08T17:42:37;1.40;99.90
46890;DHT22;32625;51.080;16.970;2022-12-08T17:45:05;1.40;99.90
46890;DHT22;32625;51.080;16.970;2022-12-08T17:47:34;1.30;99.90
46890;DHT22;32625;51.080;16.970;2022-12-08T17:50:01;1.30;99.90
46890;DHT22;32625;51.080;16.970;2022-12-08T17:52:29;1.30;99.90
46890;DHT22;32625;51.080;16.970;2022-12-08T17:54:56;1.30;99.90
46890;DHT22;32625;51.080;16.970;2022-12-08T17:57:23;1.20;99.90
46890;DHT22;32625;51.080;16.970;2022-12-08T17:59:50;1.20;99.90
46890;DHT22;32625;51.080;16.970;2022-12-08T18:02:17;1.20;99.90
46890;DHT22;32625;51.080;16.970;2022-12-08T18:04:45;1.10;99.90
46890;DHT22;32625;51.080;16.970;2022-12-08T18:07:12;1.10;99.90
46890;DHT22;32625;51.080;16.970;2022-12-08T18:09:39;1.10;99.90
46890;DHT22;32625;51.080;16.970;2022-12-08T18:12:08;1.10;99.90
46890;DHT22;32625;51.080;16.970;2022-12-08T18:14:35;1.00;99.90
46890;DHT22;32625;51.080;16.970;2022-12-08T18:17:02;1.00;99.90
46890;DHT22;32625;51.080;16.970;2022-12-08T18:19:29;1.00;99.90
46890;DHT22;32625;51.080;16.970;2022-12-08T18:21:57;1.00;99.90
46890;DHT22;32625;51.080;16.970;2022-12-08T18:24:24;1.00;99.90
46890;DHT22;32625;51.080;16.970;2022-12-08T18:26:51;1.00;99.90
46890;DHT22;32625;51.080;16.970;2022-12-08T18:29:20;0.90;99.90
46890;DHT22;32625;51.080;16.970;2022-12-08T18:31:48;0.90;99.90
46890;DHT22;32625;51.080;16.970;2022-12-08T18:34:16;0.90;99.90
46890;DHT22;32625;51.080;16.970;2022-12-08T18:36:45;0.90;99.90
46890;DHT22;32625;51.080;16.970;2022-12-08T18:39:24;0.90;99.90
46890;DHT22;32625;51.080;16.970;2022-12-08T18:41:53;0.90;99.90
46890;DHT22;32625;51.080;16.970;2022-12-08T18:44:21;1.00;99.90
46890;DHT22;32625;51.080;16.970;2022-12-08T18:46:54;0.90;99.90
46890;DHT22;32625;51.080;16.970;2022-12-08T18:49:31;0.90;99.90
46890;DHT22;32625;51.080;16.970;2022-12-08T18:51:58;0.80;99.90
46890;DHT22;32625;51.080;16.970;2022-12-08T18:54:26;0.90;99.90
46890;DHT22;32625;51.080;16.970;2022-12-08T18:57:13;0.90;99.90
46890;DHT22;32625;51.080;16.970;2022-12-08T18:59:41;0.90;99.90
46890;DHT22;32625;51.080;16.970;2022-12-08T19:02:12;0.90;99.90
46890;DHT22;32625;51.080;16.970;2022-12-08T19:04:40;0.90;99.90
46890;DHT22;32625;51.080;16.970;2022-12-08T19:07:10;1.10;99.90
46890;DHT22;32625;51.080;16.970;2022-12-08T19:09:38;1.10;99.90
46890;DHT22;32625;51.080;16.970;2022-12-08T19:12:06;1.20;99.90
46890;DHT22;32625;51.080;16.970;2022-12-08T19:14:34;1.30;99.90
46890;DHT22;32625;51.080;16.970;2022-12-08T19:17:01;1.30;99.90
46890;DHT22;32625;51.080;16.970;2022-12-08T19:19:28;1.40;99.90
46890;DHT22;32625;51.080;16.970;2022-12-08T19:21:56;1.50;99.90
46890;DHT22;32625;51.080;16.970;2022-12-08T19:24:23;1.50;99.90
46890;DHT22;32625;51.080;16.970;2022-12-08T19:26:51;1.60;99.90
46890;DHT22;32625;51.080;16.970;2022-12-08T19:29:18;1.60;99.90
46890;DHT22;32625;51.080;16.970;2022-12-08T19:31:45;1.60;99.90
46890;DHT22;32625;51.080;16.970;2022-12-08T19:34:13;1.60;99.90
46890;DHT22;32625;51.080;16.970;2022-12-08T19:36:41;1.70;99.90
46890;DHT22;32625;51.080;16.970;2022-12-08T19:39:22;1.80;99.90
46890;DHT22;32625;51.080;16.970;2022-12-08T19:42:15;1.80;99.90
46890;DHT22;32625;51.080;16.970;2022-12-08T19:45:07;1.80;99.90
46890;DHT22;32625;51.080;16.970;2022-12-08T19:47:38;1.90;99.90
46890;DHT22;32625;51.080;16.970;2022-12-08T19:50:08;1.90;99.90